sensor_id;sensor_type;location;lat;lon;timestamp;temperature;humidity
39519;DHT22;25200;53.394;10.414;2023-04-25T00:00:33;10.50;70.10
39519;DHT22;25200;53.394;10.414;2023-04-25T00:02:59;10.50;70.10
39519;DHT22;25200;53.394;10.414;2023-04-25T00:05:26;10.50;70.00
39519;DHT22;25200;53.394;10.414;2023-04-25T00:07:52;10.50;70.30
39519;DHT22;25200;53.394;10.414;2023-04-25T00:10:19;10.50;70.10
39519;DHT22;25200;53.394;10.414;2023-04-25T00:12:45;10.50;70.40
39519;DHT22;25200;53.394;10.414;2023-04-25T00:15:11;10.40;70.20
39519;DHT22;25200;53.394;10.414;2023-04-25T00:17:37;10.40;70.10
39519;DHT22;25200;53.394;10.414;2023-04-25T00:20:04;10.40;70.40
39519;DHT22;25200;53.394;10.414;2023-04-25T00:22:30;10.40;70.20
39519;DHT22;25200;53.394;10.414;2023-04-25T00:24:56;10.40;70.20
39519;DHT22;25200;53.394;10.414;2023-04-25T00:27:25;10.40;70.20
39519;DHT22;25200;53.394;10.414;2023-04-25T00:29:51;10.40;70.40
39519;DHT22;25200;53.394;10.414;2023-04-25T00:32:17;10.40;70.50
39519;DHT22;25200;53.394;10.414;2023-04-25T00:34:42;10.40;70.10
39519;DHT22;25200;53.394;10.414;2023-04-25T00:37:08;10.40;70.10
39519;DHT22;25200;53.394;10.414;2023-04-25T00:39:34;10.40;70.60
39519;DHT22;25200;53.394;10.414;2023-04-25T00:42:00;10.40;70.70
39519;DHT22;25200;53.394;10.414;2023-04-25T00:44:27;10.40;70.50
39519;DHT22;25200;53.394;10.414;2023-04-25T00:46:55;10.40;70.50
39519;DHT22;25200;53.394;10.414;2023-04-25T00:49:21;10.40;70.60
39519;DHT22;25200;53.394;10.414;2023-04-25T00:51:46;10.40;70.70
39519;DHT22;25200;53.394;10.414;2023-04-25T00:54:12;10.40;71.00
39519;DHT22;25200;53.394;10.414;2023-04-25T00:56:38;10.40;70.80
39519;DHT22;25200;53.394;10.414;2023-04-25T00:59:04;10.30;70.40
39519;DHT22;25200;53.394;10.414;2023-04-25T01:01:31;10.40;70.40
39519;DHT22;25200;53.394;10.414;2023-04-25T01:03:58;10.40;70.70
39519;DHT22;25200;53.394;10.414;2023-04-25T01:06:24;10.40;70.60
39519;DHT22;25200;53.394;10.414;2023-04-25T01:08:51;10.40;70.80
39519;DHT22;25200;53.394;10.414;2023-04-25T01:11:17;10.40;70.90
39519;DHT22;25200;53.394;10.414;2023-04-25T01:13:43;10.40;71.40
39519;DHT22;25200;53.394;10.414;2023-04-25T01:16:09;10.30;71.00
39519;DHT22;25200;53.394;10.414;2023-04-25T01:18:35;10.30;70.80
39519;DHT22;25200;53.394;10.414;2023-04-25T01:21:11;10.30;70.60
39519;DHT22;25200;53.394;10.414;2023-04-25T01:23:41;10.30;70.70
39519;DHT22;25200;53.394;10.414;2023-04-25T01:26:09;10.30;70.80
39519;DHT22;25200;53.394;10.414;2023-04-25T01:28:35;10.30;70.90
39519;DHT22;25200;53.394;10.414;2023-04-25T01:31:01;10.20;70.60
39519;DHT22;25200;53.394;10.414;2023-04-25T01:33:27;10.30;70.70
39519;DHT22;25200;53.394;10.414;2023-04-25T01:35:53;10.20;70.90
39519;DHT22;25200;53.394;10.414;2023-04-25T01:38:18;10.20;70.70
39519;DHT22;25200;53.394;10.414;2023-04-25T01:40:45;10.20;70.30
39519;DHT22;25200;53.394;10.414;2023-04-25T01:43:12;10.20;70.60
39519;DHT22;25200;53.394;10.414;2023-04-25T01:45:40;10.20;70.80
39519;DHT22;25200;53.394;10.414;2023-04-25T01:48:07;10.20;70.90
39519;DHT22;25200;53.394;10.414;2023-04-25T01:50:33;10.20;70.70
39519;DHT22;25200;53.394;10.414;2023-04-25T01:53:00;10.20;70.70
39519;DHT22;25200;53.394;10.414;2023-04-25T01:55:27;10.20;70.90
39519;DHT22;25200;53.394;10.414;2023-04-25T01:57:53;10.10;70.80
39519;DHT22;25200;53.394;10.414;2023-04-25T02:00:18;10.10;70.90
39519;DHT22;25200;53.394;10.414;2023-04-25T02:02:44;10.10;70.70
39519;DHT22;25200;53.394;10.414;2023-04-25T02:05:10;10.10;70.90
39519;DHT22;25200;53.394;10.414;2023-04-25T02:07:36;10.10;70.70
39519;DHT22;25200;53.394;10.414;2023-04-25T02:10:01;10.10;70.50
39519;DHT22;25200;53.394;10.414;2023-04-25T02:12:27;10.00;70.60
39519;DHT22;25200;53.394;10.414;2023-04-25T02:14:53;10.00;70.50
39519;DHT22;25200;53.394;10.414;2023-04-25T02:17:19;10.00;70.60
39519;DHT22;25200;53.394;10.414;2023-04-25T02:19:46;10.00;70.80
39519;DHT22;25200;53.394;10.414;2023-04-25T02:22:12;9.90;70.40
39519;DHT22;25200;53.394;10.414;2023-04-25T02:24:38;9.90;70.70
39519;DHT22;25200;53.394;10.414;2023-04-25T02:27:04;9.90;70.60
39519;DHT22;25200;53.394;10.414;2023-04-25T02:29:30;9.90;70.40
39519;DHT22;25200;53.394;10.414;2023-04-25T02:31:55;9.90;70.40
39519;DHT22;25200;53.394;10.414;2023-04-25T02:34:21;9.80;70.20
39519;DHT22;25200;53.394;10.414;2023-04-25T02:36:48;9.80;70.50
39519;DHT22;25200;53.394;10.414;2023-04-25T02:39:16;9.80;70.40
39519;DHT22;25200;53.394;10.414;2023-04-25T02:41:42;9.80;70.30
39519;DHT22;25200;53.394;10.414;2023-04-25T02:44:08;9.80;70.30
39519;DHT22;25200;53.394;10.414;2023-04-25T02:46:33;9.80;70.30
39519;DHT22;25200;53.394;10.414;2023-04-25T02:48:59;9.80;69.90
39519;DHT22;25200;53.394;10.414;2023-04-25T02:51:24;9.80;70.20
39519;DHT22;25200;53.394;10.414;2023-04-25T02:53:51;9.70;70.10
39519;DHT22;25200;53.394;10.414;2023-04-25T02:56:17;9.70;70.20
39519;DHT22;25200;53.394;10.414;2023-04-25T02:58:43;9.70;70.00
39519;DHT22;25200;53.394;10.414;2023-04-25T03:01:10;9.70;70.10
39519;DHT22;25200;53.394;10.414;2023-04-25T03:03:36;9.60;70.00
39519;DHT22;25200;53.394;10.414;2023-04-25T03:06:01;9.60;69.60
39519;DHT22;25200;53.394;10.414;2023-04-25T03:08:27;9.60;69.80
39519;DHT22;25200;53.394;10.414;2023-04-25T03:10:58;9.50;69.90
39519;DHT22;25200;53.394;10.414;2023-04-25T03:13:24;9.40;69.80
39519;DHT22;25200;53.394;10.414;2023-04-25T03:15:49;9.30;69.70
39519;DHT22;25200;53.394;10.414;2023-04-25T03:18:15;9.30;69.70
39519;DHT22;25200;53.394;10.414;2023-04-25T03:20:41;9.30;70.00
39519;DHT22;25200;53.394;10.414;2023-04-25T03:23:07;9.30;70.10
39519;DHT22;25200;53.394;10.414;2023-04-25T03:25:33;9.30;70.00
39519;DHT22;25200;53.394;10.414;2023-04-25T03:27:58;9.30;70.20
39519;DHT22;25200;53.394;10.414;2023-04-25T03:30:24;9.30;70.00
39519;DHT22;25200;53.394;10.414;2023-04-25T03:32:50;9.30;69.80
39519;DHT22;25200;53.394;10.414;2023-04-25T03:35:15;9.30;70.00
39519;DHT22;25200;53.394;10.414;2023-04-25T03:37:41;9.30;69.90
39519;DHT22;25200;53.394;10.414;2023-04-25T03:40:11;9.20;69.60
39519;DHT22;25200;53.394;10.414;2023-04-25T03:42:36;9.20;69.70
39519;DHT22;25200;53.394;10.414;2023-04-25T03:45:02;9.20;69.70
39519;DHT22;25200;53.394;10.414;2023-04-25T03:47:28;9.20;69.60
39519;DHT22;25200;53.394;10.414;2023-04-25T03:49:54;9.20;69.80
39519;DHT22;25200;53.394;10.414;2023-04-25T03:52:20;9.20;69.70
39519;DHT22;25200;53.394;10.414;2023-04-25T03:54:46;9.20;69.50
39519;DHT22;25200;53.394;10.414;2023-04-25T03:57:11;9.10;69.70
39519;DHT22;25200;53.394;10.414;2023-04-25T03:59:37;9.10;69.80
39519;DHT22;25200;53.394;10.414;2023-04-25T04:02:03;9.10;69.50
39519;DHT22;25200;53.394;10.414;2023-04-25T04:04:28;9.10;69.40
39519;DHT22;25200;53.394;10.414;2023-04-25T04:06:54;9.00;69.40
39519;DHT22;25200;53.394;10.414;2023-04-25T04:09:20;9.00;69.50
39519;DHT22;25200;53.394;10.414;2023-04-25T04:11:45;9.00;69.50
39519;DHT22;25200;53.394;10.414;2023-04-25T04:14:11;8.90;69.40
39519;DHT22;25200;53.394;10.414;2023-04-25T04:16:37;8.90;69.40
39519;DHT22;25200;53.394;10.414;2023-04-25T04:19:03;8.90;69.40
39519;DHT22;25200;53.394;10.414;2023-04-25T04:21:28;8.90;69.60
39519;DHT22;25200;53.394;10.414;2023-04-25T04:23:54;8.90;69.50
39519;DHT22;25200;53.394;10.414;2023-04-25T04:26:20;8.90;69.60
39519;DHT22;25200;53.394;10.414;2023-04-25T04:28:49;8.80;69.60
39519;DHT22;25200;53.394;10.414;2023-04-25T04:31:20;8.80;69.70
39519;DHT22;25200;53.394;10.414;2023-04-25T04:33:47;8.80;69.40
39519;DHT22;25200;53.394;10.414;2023-04-25T04:36:13;8.70;69.30
39519;DHT22;25200;53.394;10.414;2023-04-25T04:38:39;8.70;69.50
39519;DHT22;25200;53.394;10.414;2023-04-25T04:41:06;8.60;69.30
39519;DHT22;25200;53.394;10.414;2023-04-25T04:43:32;8.60;69.20
39519;DHT22;25200;53.394;10.414;2023-04-25T04:46:00;8.60;69.30
39519;DHT22;25200;53.394;10.414;2023-04-25T04:48:26;8.60;69.20
39519;DHT22;25200;53.394;10.414;2023-04-25T04:50:52;8.60;69.40
39519;DHT22;25200;53.394;10.414;2023-04-25T04:53:18;8.60;69.40
39519;DHT22;25200;53.394;10.414;2023-04-25T04:55:43;8.60;69.20
39519;DHT22;25200;53.394;10.414;2023-04-25T04:58:09;8.60;69.60
39519;DHT22;25200;53.394;10.414;2023-04-25T05:00:35;8.60;69.50
39519;DHT22;25200;53.394;10.414;2023-04-25T05:03:00;8.60;69.50
39519;DHT22;25200;53.394;10.414;2023-04-25T05:05:26;8.60;69.40
39519;DHT22;25200;53.394;10.414;2023-04-25T05:07:52;8.60;69.40
39519;DHT22;25200;53.394;10.414;2023-04-25T05:10:18;8.60;69.30
39519;DHT22;25200;53.394;10.414;2023-04-25T05:12:44;8.50;69.30
39519;DHT22;25200;53.394;10.414;2023-04-25T05:15:11;8.60;69.40
39519;DHT22;25200;53.394;10.414;2023-04-25T05:17:37;8.60;69.20
39519;DHT22;25200;53.394;10.414;2023-04-25T05:20:05;8.60;69.40
39519;DHT22;25200;53.394;10.414;2023-04-25T05:22:31;8.60;69.20
39519;DHT22;25200;53.394;10.414;2023-04-25T05:24:56;8.60;69.30
39519;DHT22;25200;53.394;10.414;2023-04-25T05:27:22;8.60;69.40
39519;DHT22;25200;53.394;10.414;2023-04-25T05:29:48;8.60;69.30
39519;DHT22;25200;53.394;10.414;2023-04-25T05:32:14;8.60;69.30
39519;DHT22;25200;53.394;10.414;2023-04-25T05:34:39;8.60;69.30
39519;DHT22;25200;53.394;10.414;2023-04-25T05:37:05;8.60;69.40
39519;DHT22;25200;53.394;10.414;2023-04-25T05:39:31;8.70;69.40
39519;DHT22;25200;53.394;10.414;2023-04-25T05:41:57;8.70;69.10
39519;DHT22;25200;53.394;10.414;2023-04-25T05:44:23;8.80;69.10
39519;DHT22;25200;53.394;10.414;2023-04-25T05:46:48;8.90;69.20
39519;DHT22;25200;53.394;10.414;2023-04-25T05:49:14;8.90;69.30
39519;DHT22;25200;53.394;10.414;2023-04-25T05:51:40;8.90;69.10
39519;DHT22;25200;53.394;10.414;2023-04-25T05:54:05;8.90;68.70
39519;DHT22;25200;53.394;10.414;2023-04-25T05:56:31;8.90;68.90
39519;DHT22;25200;53.394;10.414;2023-04-25T05:58:57;8.90;68.90
39519;DHT22;25200;53.394;10.414;2023-04-25T06:01:23;8.90;68.60
39519;DHT22;25200;53.394;10.414;2023-04-25T06:03:49;8.90;68.70
39519;DHT22;25200;53.394;10.414;2023-04-25T06:06:14;8.90;68.60
39519;DHT22;25200;53.394;10.414;2023-04-25T06:08:40;8.90;68.70
39519;DHT22;25200;53.394;10.414;2023-04-25T06:11:06;8.90;68.70
39519;DHT22;25200;53.394;10.414;2023-04-25T06:13:32;8.90;68.50
39519;DHT22;25200;53.394;10.414;2023-04-25T06:15:58;8.90;68.60
39519;DHT22;25200;53.394;10.414;2023-04-25T06:18:24;8.90;68.60
39519;DHT22;25200;53.394;10.414;2023-04-25T06:20:49;9.00;68.50
39519;DHT22;25200;53.394;10.414;2023-04-25T06:23:15;9.00;68.60
39519;DHT22;25200;53.394;10.414;2023-04-25T06:25:41;9.00;68.50
39519;DHT22;25200;53.394;10.414;2023-04-25T06:28:06;9.00;68.40
39519;DHT22;25200;53.394;10.414;2023-04-25T06:30:32;9.00;68.40
39519;DHT22;25200;53.394;10.414;2023-04-25T06:32:58;9.10;68.40
39519;DHT22;25200;53.394;10.414;2023-04-25T06:35:23;9.10;68.20
39519;DHT22;25200;53.394;10.414;2023-04-25T06:37:49;9.10;68.40
39519;DHT22;25200;53.394;10.414;2023-04-25T06:40:15;9.20;68.40
39519;DHT22;25200;53.394;10.414;2023-04-25T06:42:42;9.20;68.20
39519;DHT22;25200;53.394;10.414;2023-04-25T06:45:08;9.20;68.10
39519;DHT22;25200;53.394;10.414;2023-04-25T06:47:37;9.20;68.10
39519;DHT22;25200;53.394;10.414;2023-04-25T06:50:03;9.30;68.30
39519;DHT22;25200;53.394;10.414;2023-04-25T06:52:29;9.30;68.00
39519;DHT22;25200;53.394;10.414;2023-04-25T06:54:55;9.30;68.00
39519;DHT22;25200;53.394;10.414;2023-04-25T06:57:20;9.30;67.90
39519;DHT22;25200;53.394;10.414;2023-04-25T06:59:46;9.40;67.90
39519;DHT22;25200;53.394;10.414;2023-04-25T07:02:12;9.40;67.90
39519;DHT22;25200;53.394;10.414;2023-04-25T07:04:37;9.40;67.70
39519;DHT22;25200;53.394;10.414;2023-04-25T07:07:03;9.40;67.60
39519;DHT22;25200;53.394;10.414;2023-04-25T07:09:29;9.50;67.70
39519;DHT22;25200;53.394;10.414;2023-04-25T07:11:55;9.40;67.50
39519;DHT22;25200;53.394;10.414;2023-04-25T07:14:22;9.40;67.50
39519;DHT22;25200;53.394;10.414;2023-04-25T07:16:47;9.40;67.50
39519;DHT22;25200;53.394;10.414;2023-04-25T07:19:13;9.40;67.70
39519;DHT22;25200;53.394;10.414;2023-04-25T07:21:39;9.40;67.50
39519;DHT22;25200;53.394;10.414;2023-04-25T07:24:05;9.50;67.40
39519;DHT22;25200;53.394;10.414;2023-04-25T07:26:31;9.50;67.40
39519;DHT22;25200;53.394;10.414;2023-04-25T07:28:56;9.60;67.40
39519;DHT22;25200;53.394;10.414;2023-04-25T07:31:22;9.60;67.50
39519;DHT22;25200;53.394;10.414;2023-04-25T07:33:48;9.70;67.50
39519;DHT22;25200;53.394;10.414;2023-04-25T07:36:14;9.70;67.40
39519;DHT22;25200;53.394;10.414;2023-04-25T07:38:40;9.80;67.40
39519;DHT22;25200;53.394;10.414;2023-04-25T07:41:06;9.90;67.40
39519;DHT22;25200;53.394;10.414;2023-04-25T07:43:32;9.90;67.40
39519;DHT22;25200;53.394;10.414;2023-04-25T07:45:58;10.00;67.30
39519;DHT22;25200;53.394;10.414;2023-04-25T07:48:23;10.10;67.30
39519;DHT22;25200;53.394;10.414;2023-04-25T07:50:49;10.10;67.10
39519;DHT22;25200;53.394;10.414;2023-04-25T07:53:15;10.20;67.10
39519;DHT22;25200;53.394;10.414;2023-04-25T07:55:41;10.20;67.00
39519;DHT22;25200;53.394;10.414;2023-04-25T07:58:07;10.30;67.00
39519;DHT22;25200;53.394;10.414;2023-04-25T08:00:33;10.30;67.00
39519;DHT22;25200;53.394;10.414;2023-04-25T08:02:59;10.30;67.00
39519;DHT22;25200;53.394;10.414;2023-04-25T08:05:24;10.40;67.10
39519;DHT22;25200;53.394;10.414;2023-04-25T08:07:50;10.40;66.90
39519;DHT22;25200;53.394;10.414;2023-04-25T08:10:16;10.50;66.90
39519;DHT22;25200;53.394;10.414;2023-04-25T08:12:42;10.50;66.90
39519;DHT22;25200;53.394;10.414;2023-04-25T08:15:08;10.50;66.70
39519;DHT22;25200;53.394;10.414;2023-04-25T08:17:34;10.50;66.70
39519;DHT22;25200;53.394;10.414;2023-04-25T08:20:00;10.50;66.70
39519;DHT22;25200;53.394;10.414;2023-04-25T08:22:25;10.60;66.80
39519;DHT22;25200;53.394;10.414;2023-04-25T08:24:51;10.60;66.60
39519;DHT22;25200;53.394;10.414;2023-04-25T08:27:18;10.70;66.70
39519;DHT22;25200;53.394;10.414;2023-04-25T08:29:44;10.70;66.50
39519;DHT22;25200;53.394;10.414;2023-04-25T08:32:09;10.70;66.60
39519;DHT22;25200;53.394;10.414;2023-04-25T08:34:35;10.80;66.80
39519;DHT22;25200;53.394;10.414;2023-04-25T08:37:03;10.90;66.60
39519;DHT22;25200;53.394;10.414;2023-04-25T08:39:29;11.00;66.50
39519;DHT22;25200;53.394;10.414;2023-04-25T08:41:56;11.00;66.30
39519;DHT22;25200;53.394;10.414;2023-04-25T08:44:22;11.20;66.70
39519;DHT22;25200;53.394;10.414;2023-04-25T08:46:49;11.40;66.90
39519;DHT22;25200;53.394;10.414;2023-04-25T08:49:17;11.50;66.50
39519;DHT22;25200;53.394;10.414;2023-04-25T08:51:45;11.60;66.40
39519;DHT22;25200;53.394;10.414;2023-04-25T08:54:16;11.70;65.70
39519;DHT22;25200;53.394;10.414;2023-04-25T08:56:44;11.70;65.20
39519;DHT22;25200;53.394;10.414;2023-04-25T08:59:12;11.60;64.90
39519;DHT22;25200;53.394;10.414;2023-04-25T09:01:37;11.50;65.30
39519;DHT22;25200;53.394;10.414;2023-04-25T09:04:03;11.50;65.40
39519;DHT22;25200;53.394;10.414;2023-04-25T09:06:30;11.50;65.40
39519;DHT22;25200;53.394;10.414;2023-04-25T09:09:02;11.50;65.00
39519;DHT22;25200;53.394;10.414;2023-04-25T09:11:29;11.50;65.00
39519;DHT22;25200;53.394;10.414;2023-04-25T09:14:13;11.50;65.40
39519;DHT22;25200;53.394;10.414;2023-04-25T09:16:59;11.40;65.30
39519;DHT22;25200;53.394;10.414;2023-04-25T09:19:26;11.50;64.90
39519;DHT22;25200;53.394;10.414;2023-04-25T09:21:57;11.50;64.80
39519;DHT22;25200;53.394;10.414;2023-04-25T09:24:42;11.50;65.10
39519;DHT22;25200;53.394;10.414;2023-04-25T09:27:10;11.60;64.90
39519;DHT22;25200;53.394;10.414;2023-04-25T09:29:38;11.70;65.10
39519;DHT22;25200;53.394;10.414;2023-04-25T09:32:24;12.00;65.60
39519;DHT22;25200;53.394;10.414;2023-04-25T09:34:52;12.20;65.30
39519;DHT22;25200;53.394;10.414;2023-04-25T09:37:23;12.30;64.50
39519;DHT22;25200;53.394;10.414;2023-04-25T09:40:00;12.30;64.70
39519;DHT22;25200;53.394;10.414;2023-04-25T09:42:28;12.10;63.70
39519;DHT22;25200;53.394;10.414;2023-04-25T09:44:57;11.90;63.80
39519;DHT22;25200;53.394;10.414;2023-04-25T09:47:24;11.80;63.80
39519;DHT22;25200;53.394;10.414;2023-04-25T09:49:52;11.70;63.80
39519;DHT22;25200;53.394;10.414;2023-04-25T09:52:23;11.50;64.20
39519;DHT22;25200;53.394;10.414;2023-04-25T09:54:50;11.40;63.80
39519;DHT22;25200;53.394;10.414;2023-04-25T09:57:22;11.30;64.00
39519;DHT22;25200;53.394;10.414;2023-04-25T09:59:50;11.20;63.90
39519;DHT22;25200;53.394;10.414;2023-04-25T10:02:18;11.20;64.30
39519;DHT22;25200;53.394;10.414;2023-04-25T10:04:51;11.10;63.90
39519;DHT22;25200;53.394;10.414;2023-04-25T10:07:20;11.10;64.00
39519;DHT22;25200;53.394;10.414;2023-04-25T10:09:49;11.10;64.40
39519;DHT22;25200;53.394;10.414;2023-04-25T10:12:17;11.20;64.50
39519;DHT22;25200;53.394;10.414;2023-04-25T10:14:43;11.30;65.10
39519;DHT22;25200;53.394;10.414;2023-04-25T10:17:10;11.60;64.70
39519;DHT22;25200;53.394;10.414;2023-04-25T10:19:39;11.70;64.60
39519;DHT22;25200;53.394;10.414;2023-04-25T10:22:13;11.80;64.20
39519;DHT22;25200;53.394;10.414;2023-04-25T10:24:40;12.00;64.50
39519;DHT22;25200;53.394;10.414;2023-04-25T10:27:06;12.10;64.60
39519;DHT22;25200;53.394;10.414;2023-04-25T10:29:32;12.30;64.60
39519;DHT22;25200;53.394;10.414;2023-04-25T10:31:58;12.50;64.50
39519;DHT22;25200;53.394;10.414;2023-04-25T10:34:37;12.90;64.40
39519;DHT22;25200;53.394;10.414;2023-04-25T10:37:04;13.10;64.50
39519;DHT22;25200;53.394;10.414;2023-04-25T10:39:29;13.30;63.90
39519;DHT22;25200;53.394;10.414;2023-04-25T10:41:59;13.40;63.20
39519;DHT22;25200;53.394;10.414;2023-04-25T10:44:28;13.40;63.80
39519;DHT22;25200;53.394;10.414;2023-04-25T10:47:03;13.60;63.90
39519;DHT22;25200;53.394;10.414;2023-04-25T10:49:41;13.90;63.90
39519;DHT22;25200;53.394;10.414;2023-04-25T10:54:56;14.40;63.40
39519;DHT22;25200;53.394;10.414;2023-04-25T10:57:39;14.40;63.00
39519;DHT22;25200;53.394;10.414;2023-04-25T11:02:52;14.60;63.00
39519;DHT22;25200;53.394;10.414;2023-04-25T11:05:36;14.80;62.60
39519;DHT22;25200;53.394;10.414;2023-04-25T11:08:10;15.10;62.80
39519;DHT22;25200;53.394;10.414;2023-04-25T11:10:36;15.30;62.80
39519;DHT22;25200;53.394;10.414;2023-04-25T11:13:02;15.50;62.40
39519;DHT22;25200;53.394;10.414;2023-04-25T11:15:28;15.70;62.20
39519;DHT22;25200;53.394;10.414;2023-04-25T11:17:55;15.70;61.90
39519;DHT22;25200;53.394;10.414;2023-04-25T11:20:21;15.70;59.00
39519;DHT22;25200;53.394;10.414;2023-04-25T11:22:47;15.50;58.10
39519;DHT22;25200;53.394;10.414;2023-04-25T11:25:15;14.90;58.10
39519;DHT22;25200;53.394;10.414;2023-04-25T11:27:55;14.50;56.70
39519;DHT22;25200;53.394;10.414;2023-04-25T11:30:23;13.90;55.90
39519;DHT22;25200;53.394;10.414;2023-04-25T11:32:50;13.70;58.50
39519;DHT22;25200;53.394;10.414;2023-04-25T11:35:18;13.60;59.30
39519;DHT22;25200;53.394;10.414;2023-04-25T11:37:44;13.50;59.60
39519;DHT22;25200;53.394;10.414;2023-04-25T11:40:10;13.50;59.90
39519;DHT22;25200;53.394;10.414;2023-04-25T11:42:43;13.40;60.50
39519;DHT22;25200;53.394;10.414;2023-04-25T11:45:10;13.50;60.50
39519;DHT22;25200;53.394;10.414;2023-04-25T11:47:36;13.50;60.70
39519;DHT22;25200;53.394;10.414;2023-04-25T11:50:03;13.60;60.70
39519;DHT22;25200;53.394;10.414;2023-04-25T11:55:09;14.00;60.90
39519;DHT22;25200;53.394;10.414;2023-04-25T11:57:38;14.20;60.80
39519;DHT22;25200;53.394;10.414;2023-04-25T12:00:11;14.50;60.50
39519;DHT22;25200;53.394;10.414;2023-04-25T12:02:40;14.70;60.40
39519;DHT22;25200;53.394;10.414;2023-04-25T12:05:07;15.00;60.30
39519;DHT22;25200;53.394;10.414;2023-04-25T12:07:36;15.20;59.70
39519;DHT22;25200;53.394;10.414;2023-04-25T12:10:11;15.50;60.70
39519;DHT22;25200;53.394;10.414;2023-04-25T12:12:38;15.80;60.40
39519;DHT22;25200;53.394;10.414;2023-04-25T12:15:13;15.90;59.40
39519;DHT22;25200;53.394;10.414;2023-04-25T12:17:41;15.80;59.10
39519;DHT22;25200;53.394;10.414;2023-04-25T12:20:13;15.60;58.80
39519;DHT22;25200;53.394;10.414;2023-04-25T12:22:44;15.30;58.70
39519;DHT22;25200;53.394;10.414;2023-04-25T12:25:13;14.90;58.60
39519;DHT22;25200;53.394;10.414;2023-04-25T12:27:38;14.60;59.20
39519;DHT22;25200;53.394;10.414;2023-04-25T12:30:09;14.40;59.30
39519;DHT22;25200;53.394;10.414;2023-04-25T12:32:36;14.30;59.60
39519;DHT22;25200;53.394;10.414;2023-04-25T12:35:03;14.20;59.70
39519;DHT22;25200;53.394;10.414;2023-04-25T12:37:29;14.20;60.00
39519;DHT22;25200;53.394;10.414;2023-04-25T12:39:56;14.20;59.90
39519;DHT22;25200;53.394;10.414;2023-04-25T12:42:21;14.40;61.10
39519;DHT22;25200;53.394;10.414;2023-04-25T12:44:47;14.70;60.60
39519;DHT22;25200;53.394;10.414;2023-04-25T12:47:13;14.90;60.30
39519;DHT22;25200;53.394;10.414;2023-04-25T12:49:39;15.30;60.50
39519;DHT22;25200;53.394;10.414;2023-04-25T12:52:04;15.60;60.00
39519;DHT22;25200;53.394;10.414;2023-04-25T12:54:30;15.90;59.40
39519;DHT22;25200;53.394;10.414;2023-04-25T12:56:56;16.00;59.70
39519;DHT22;25200;53.394;10.414;2023-04-25T12:59:22;16.30;59.50
39519;DHT22;25200;53.394;10.414;2023-04-25T13:01:48;16.40;59.20
39519;DHT22;25200;53.394;10.414;2023-04-25T13:04:14;16.30;58.50
39519;DHT22;25200;53.394;10.414;2023-04-25T13:06:41;16.20;58.50
39519;DHT22;25200;53.394;10.414;2023-04-25T13:09:06;15.90;58.20
39519;DHT22;25200;53.394;10.414;2023-04-25T13:11:32;15.70;57.70
39519;DHT22;25200;53.394;10.414;2023-04-25T13:13:58;15.40;58.00
39519;DHT22;25200;53.394;10.414;2023-04-25T13:16:23;15.10;57.60
39519;DHT22;25200;53.394;10.414;2023-04-25T13:18:49;14.90;57.90
39519;DHT22;25200;53.394;10.414;2023-04-25T13:21:15;14.70;58.10
39519;DHT22;25200;53.394;10.414;2023-04-25T13:23:41;14.60;58.40
39519;DHT22;25200;53.394;10.414;2023-04-25T13:26:11;14.60;58.90
39519;DHT22;25200;53.394;10.414;2023-04-25T13:28:37;14.70;59.60
39519;DHT22;25200;53.394;10.414;2023-04-25T13:31:02;15.00;59.40
39519;DHT22;25200;53.394;10.414;2023-04-25T13:33:28;15.10;59.40
39519;DHT22;25200;53.394;10.414;2023-04-25T13:35:54;15.40;59.30
39519;DHT22;25200;53.394;10.414;2023-04-25T13:38:22;15.50;59.30
39519;DHT22;25200;53.394;10.414;2023-04-25T13:40:48;15.70;59.10
39519;DHT22;25200;53.394;10.414;2023-04-25T13:43:14;15.60;58.80
39519;DHT22;25200;53.394;10.414;2023-04-25T13:45:40;15.40;57.90
39519;DHT22;25200;53.394;10.414;2023-04-25T13:48:06;15.10;58.00
39519;DHT22;25200;53.394;10.414;2023-04-25T13:50:32;14.80;58.20
39519;DHT22;25200;53.394;10.414;2023-04-25T13:52:57;14.70;59.10
39519;DHT22;25200;53.394;10.414;2023-04-25T13:55:23;14.50;58.70
39519;DHT22;25200;53.394;10.414;2023-04-25T13:57:49;14.40;58.60
39519;DHT22;25200;53.394;10.414;2023-04-25T14:00:15;14.30;58.70
39519;DHT22;25200;53.394;10.414;2023-04-25T14:02:40;14.20;58.80
39519;DHT22;25200;53.394;10.414;2023-04-25T14:05:06;14.00;58.90
39519;DHT22;25200;53.394;10.414;2023-04-25T14:07:36;13.90;58.90
39519;DHT22;25200;53.394;10.414;2023-04-25T14:10:03;13.90;59.30
39519;DHT22;25200;53.394;10.414;2023-04-25T14:12:30;13.80;59.20
39519;DHT22;25200;53.394;10.414;2023-04-25T14:14:55;13.70;59.20
39519;DHT22;25200;53.394;10.414;2023-04-25T14:17:21;13.70;59.30
39519;DHT22;25200;53.394;10.414;2023-04-25T14:19:47;13.80;59.90
39519;DHT22;25200;53.394;10.414;2023-04-25T14:22:14;14.00;60.00
39519;DHT22;25200;53.394;10.414;2023-04-25T14:24:43;14.30;60.70
39519;DHT22;25200;53.394;10.414;2023-04-25T14:27:08;14.50;59.90
39519;DHT22;25200;53.394;10.414;2023-04-25T14:29:34;14.80;60.00
39519;DHT22;25200;53.394;10.414;2023-04-25T14:32:00;14.90;59.40
39519;DHT22;25200;53.394;10.414;2023-04-25T14:34:26;14.70;59.00
39519;DHT22;25200;53.394;10.414;2023-04-25T14:36:52;14.50;58.80
39519;DHT22;25200;53.394;10.414;2023-04-25T14:39:18;14.30;58.80
39519;DHT22;25200;53.394;10.414;2023-04-25T14:41:44;14.20;58.80
39519;DHT22;25200;53.394;10.414;2023-04-25T14:44:10;14.00;58.90
39519;DHT22;25200;53.394;10.414;2023-04-25T14:46:36;13.90;59.10
39519;DHT22;25200;53.394;10.414;2023-04-25T14:49:03;13.70;59.10
39519;DHT22;25200;53.394;10.414;2023-04-25T14:51:28;13.60;59.20
39519;DHT22;25200;53.394;10.414;2023-04-25T14:53:55;13.50;59.40
39519;DHT22;25200;53.394;10.414;2023-04-25T14:56:21;13.60;59.70
39519;DHT22;25200;53.394;10.414;2023-04-25T14:58:46;13.60;59.60
39519;DHT22;25200;53.394;10.414;2023-04-25T15:01:12;13.70;59.80
39519;DHT22;25200;53.394;10.414;2023-04-25T15:03:39;13.70;59.60
39519;DHT22;25200;53.394;10.414;2023-04-25T15:06:05;13.60;59.50
39519;DHT22;25200;53.394;10.414;2023-04-25T15:08:31;13.60;59.50
39519;DHT22;25200;53.394;10.414;2023-04-25T15:10:58;13.60;59.50
39519;DHT22;25200;53.394;10.414;2023-04-25T15:13:24;13.40;59.30
39519;DHT22;25200;53.394;10.414;2023-04-25T15:15:50;13.40;59.20
39519;DHT22;25200;53.394;10.414;2023-04-25T15:18:23;13.30;59.20
39519;DHT22;25200;53.394;10.414;2023-04-25T15:20:52;13.20;59.20
39519;DHT22;25200;53.394;10.414;2023-04-25T15:23:18;13.10;59.30
39519;DHT22;25200;53.394;10.414;2023-04-25T15:25:45;13.10;59.10